createdAt,value
2023-01-17T00:02:31.585Z,96075.69
2023-01-17T00:07:53.390Z,96077.00
2023-01-17T00:13:03.686Z,96077.29
2023-01-17T00:18:05.487Z,96079.66
2023-01-17T00:23:26.816Z,96083.05
2023-01-17T00:28:29.612Z,96081.52
2023-01-17T00:33:32.880Z,96080.31
2023-01-17T00:38:36.135Z,96089.29
2023-01-17T00:43:57.086Z,96090.51
2023-01-17T00:49:20.387Z,96079.30
2023-01-17T00:54:41.047Z,96072.01
2023-01-17T01:00:01.673Z,96084.91
2023-01-17T01:05:23.018Z,96082.42
2023-01-17T01:10:43.541Z,96082.33
2023-01-17T01:16:04.150Z,96078.35
2023-01-17T01:21:35.405Z,96093.54
2023-01-17T01:26:55.940Z,96095.81
2023-01-17T01:32:16.461Z,96092.48
2023-01-17T01:37:18.203Z,96096.59
2023-01-17T01:42:19.903Z,96098.48
2023-01-17T01:47:24.707Z,96103.42
2023-01-17T01:52:28.072Z,96104.80
2023-01-17T01:57:32.017Z,96097.70
2023-01-17T02:02:34.905Z,96099.74
2023-01-17T02:07:41.595Z,96104.49
2023-01-17T02:12:44.737Z,96112.46
2023-01-17T02:17:55.393Z,96116.68
2023-01-17T02:23:01.493Z,96106.02
2023-01-17T02:28:31.643Z,96097.23
2023-01-17T02:33:40.439Z,96092.97
2023-01-17T02:38:48.425Z,96089.92
2023-01-17T02:43:51.414Z,96087.38
2023-01-17T02:48:54.829Z,96089.94
2023-01-17T02:53:56.556Z,96089.60
2023-01-17T02:59:14.765Z,96081.48
2023-01-17T03:04:21.613Z,96081.66
2023-01-17T03:09:24.733Z,96074.38
2023-01-17T03:14:30.254Z,96071.66
2023-01-17T03:19:32.178Z,96077.58
2023-01-17T03:24:33.808Z,96084.53
2023-01-17T03:29:35.532Z,96104.50
2023-01-17T03:34:37.263Z,96104.83
2023-01-17T03:39:39.026Z,96109.22
2023-01-17T03:44:40.839Z,96116.00
2023-01-17T03:49:43.501Z,96115.67
2023-01-17T03:54:45.383Z,96123.29
2023-01-17T03:59:48.770Z,96121.94
2023-01-17T04:04:51.168Z,96122.61
2023-01-17T04:09:53.066Z,96124.63
2023-01-17T04:14:54.722Z,96126.98
2023-01-17T04:19:56.451Z,96131.20
2023-01-17T04:24:58.821Z,96127.11
2023-01-17T04:30:00.775Z,96137.92
2023-01-17T04:35:04.510Z,96137.54
2023-01-17T04:40:06.466Z,96133.45
2023-01-17T04:45:08.529Z,96143.70
2023-01-17T04:50:10.884Z,96152.77
2023-01-17T04:55:12.866Z,96153.70
2023-01-17T05:00:14.942Z,96156.86
2023-01-17T05:05:16.750Z,96164.79
2023-01-17T05:10:18.406Z,96168.86
2023-01-17T05:15:20.251Z,96175.86
2023-01-17T05:20:23.241Z,96174.08
2023-01-17T05:25:26.101Z,96172.80
2023-01-17T05:30:28.973Z,96168.30
2023-01-17T05:35:34.797Z,96156.52
2023-01-17T05:40:36.562Z,96150.45
2023-01-17T05:45:38.370Z,96160.29
2023-01-17T05:50:40.981Z,96163.16
2023-01-17T05:55:43.125Z,96162.65
2023-01-17T06:00:44.907Z,96159.45
2023-01-17T06:05:47.501Z,96167.75
2023-01-17T06:10:50.267Z,96172.68
2023-01-17T06:15:53.130Z,96180.66
2023-01-17T06:20:55.155Z,96190.83
2023-01-17T06:25:56.864Z,96203.89
2023-01-17T06:30:59.843Z,96198.63
2023-01-17T06:36:01.776Z,96196.28
2023-01-17T06:41:05.695Z,96190.88
2023-01-17T06:46:07.510Z,96193.92
2023-01-17T06:51:09.631Z,96195.29
2023-01-17T06:56:11.709Z,96197.32
2023-01-17T07:01:13.550Z,96200.19
2023-01-17T07:06:15.751Z,96205.79
2023-01-17T07:11:17.525Z,96207.14
2023-01-17T07:16:19.424Z,96204.41
2023-01-17T07:21:21.207Z,96204.27
2023-01-17T07:26:23.044Z,96197.83
2023-01-17T07:31:24.868Z,96199.52
2023-01-17T07:36:26.677Z,96199.34
2023-01-17T07:43:45.669Z,96204.76
2023-01-17T07:48:47.222Z,96217.81
2023-01-17T07:53:48.949Z,96225.27
2023-01-17T07:58:50.557Z,96231.88
2023-01-17T08:03:54.867Z,96235.94
2023-01-17T08:08:58.964Z,96238.48
2023-01-17T08:14:00.670Z,96248.48
2023-01-17T08:19:02.333Z,96248.64
2023-01-17T08:24:04.235Z,96248.95
2023-01-17T08:29:06.460Z,96254.36
2023-01-17T08:34:08.166Z,96259.60
2023-01-17T08:39:10.166Z,96263.30
2023-01-17T08:44:12.467Z,96266.20
2023-01-17T08:49:14.305Z,96275.17
2023-01-17T08:54:16.624Z,96275.66
2023-01-17T08:59:18.971Z,96279.52
2023-01-17T09:04:21.376Z,96282.03
2023-01-17T09:09:23.501Z,96284.54
2023-01-17T09:14:25.317Z,96284.50
2023-01-17T09:19:28.077Z,96283.24
2023-01-17T09:24:31.095Z,96290.99
2023-01-17T09:29:32.704Z,96293.65
2023-01-17T09:34:34.290Z,96291.36
2023-01-17T09:39:35.949Z,96300.80
2023-01-17T09:44:47.668Z,96300.90
2023-01-17T09:49:52.225Z,96299.64
2023-01-17T09:54:54.007Z,96295.00
2023-01-17T10:00:14.310Z,96292.02
2023-01-17T10:05:43.208Z,96294.57
2023-01-17T10:11:22.703Z,96295.47
2023-01-17T10:16:43.595Z,96290.01
2023-01-17T10:21:59.176Z,96288.33
2023-01-17T10:27:03.420Z,96283.36
2023-01-17T10:32:06.121Z,96288.84
2023-01-17T10:37:20.525Z,96290.84
2023-01-17T10:42:34.026Z,96291.99
2023-01-17T10:47:37.550Z,96300.27
2023-01-17T10:52:48.506Z,96306.76
2023-01-17T10:57:51.222Z,96305.95
2023-01-17T11:02:53.112Z,96305.75
2023-01-17T11:07:59.196Z,96295.89
2023-01-17T11:13:01.289Z,96298.49
2023-01-17T11:18:06.525Z,96296.17
2023-01-17T11:23:18.103Z,96293.76
2023-01-17T11:28:30.187Z,96290.02
2023-01-17T11:33:48.138Z,96295.52
2023-01-17T11:39:04.749Z,96294.36
2023-01-17T11:44:24.931Z,96292.98
2023-01-17T11:49:26.680Z,96286.55
2023-01-17T11:54:39.135Z,96274.73
2023-01-17T11:59:45.230Z,96271.31
2023-01-17T12:05:17.373Z,96265.79
2023-01-17T12:10:21.897Z,96257.96
2023-01-17T12:15:36.055Z,96244.41
2023-01-17T12:21:17.957Z,96255.47
2023-01-17T12:26:34.351Z,96257.98
2023-01-17T12:31:43.339Z,96257.29
2023-01-17T12:37:05.452Z,96263.24
2023-01-17T12:42:19.842Z,96271.23
2023-01-17T12:47:21.863Z,96276.98
2023-01-17T12:52:35.692Z,96276.58
2023-01-17T12:57:45.201Z,96263.41
2023-01-17T13:03:03.563Z,96269.37
2023-01-17T13:08:34.567Z,96263.89
2023-01-17T13:13:36.795Z,96264.03
2023-01-17T13:18:47.016Z,96258.55
2023-01-17T13:24:04.129Z,96261.67
2023-01-17T13:29:27.114Z,96265.04
2023-01-17T13:34:35.230Z,96270.91
2023-01-17T13:40:00.381Z,96283.97
2023-01-17T13:45:08.820Z,96288.88
2023-01-17T13:50:36.367Z,96294.74
2023-01-17T13:55:50.328Z,96307.73
2023-01-17T14:00:52.457Z,96315.13
2023-01-17T14:05:57.568Z,96319.96
2023-01-17T14:11:10.010Z,96343.41
2023-01-17T14:16:21.141Z,96366.44
2023-01-17T14:21:31.597Z,96378.20
2023-01-17T14:26:52.167Z,96387.81
2023-01-17T14:32:02.719Z,96384.80
2023-01-17T14:37:14.639Z,96393.74
2023-01-17T14:42:23.666Z,96398.23
2023-01-17T14:47:28.345Z,96398.48
2023-01-17T14:52:30.112Z,96402.28
2023-01-17T14:57:31.805Z,96406.64
2023-01-17T15:02:33.841Z,96417.64
2023-01-17T15:07:36.747Z,96427.89
2023-01-17T15:12:38.782Z,96429.41
2023-01-17T15:17:40.410Z,96424.95
2023-01-17T15:22:42.351Z,96418.44
2023-01-17T15:27:44.293Z,96408.69
2023-01-17T15:32:51.224Z,96407.73
2023-01-17T15:37:54.989Z,96407.80
2023-01-17T15:43:00.937Z,96406.48
2023-01-17T15:48:36.154Z,96400.23
2023-01-17T15:53:41.648Z,96398.89
2023-01-17T15:58:43.314Z,96394.31
2023-01-17T16:03:52.546Z,96393.29
2023-01-17T16:08:54.491Z,96390.91
2023-01-17T16:13:56.139Z,96376.33
2023-01-17T16:19:00.686Z,96371.73
2023-01-17T16:24:03.126Z,96380.88
2023-01-17T16:29:04.820Z,96386.45
2023-01-17T16:34:14.631Z,96381.00
2023-01-17T16:39:16.336Z,96379.66
2023-01-17T16:44:18.153Z,96373.75
2023-01-17T16:49:19.851Z,96365.45
2023-01-17T16:54:21.528Z,96358.00
2023-01-17T16:59:23.296Z,96341.71
2023-01-17T17:04:26.055Z,96339.50
2023-01-17T17:09:27.782Z,96339.34
2023-01-17T17:14:29.725Z,96337.63
2023-01-17T17:19:31.375Z,96331.02
2023-01-17T17:24:33.495Z,96329.52
2023-01-17T17:29:36.140Z,96334.95
2023-01-17T17:34:38.763Z,96330.01
2023-01-17T17:39:40.462Z,96334.41
2023-01-17T17:44:42.009Z,96353.23
2023-01-17T17:49:43.778Z,96361.36
2023-01-17T17:54:45.506Z,96363.59
2023-01-17T17:59:47.280Z,96370.20
2023-01-17T18:04:49.185Z,96363.92
2023-01-17T18:09:59.835Z,96359.85
2023-01-17T18:15:04.600Z,96372.58
2023-01-17T18:20:07.752Z,96385.95
2023-01-17T18:25:11.519Z,96388.84
2023-01-17T18:30:13.447Z,96385.10
2023-01-17T18:35:15.277Z,96388.98
2023-01-17T18:40:17.285Z,96382.22
2023-01-17T18:45:19.121Z,96393.21
2023-01-17T18:50:20.943Z,96388.13
2023-01-17T18:55:23.056Z,96391.89
2023-01-17T19:00:24.877Z,96397.33
2023-01-17T19:05:26.670Z,96395.12
2023-01-17T19:10:28.413Z,96394.11
2023-01-17T19:15:30.973Z,96377.16
2023-01-17T19:24:10.534Z,96358.86
2023-01-17T19:29:12.420Z,96347.99
2023-01-17T19:34:15.031Z,96338.33
2023-01-17T19:39:16.693Z,96330.50
2023-01-17T19:44:18.273Z,96323.55
2023-01-17T19:49:24.769Z,96325.56
2023-01-17T19:54:26.503Z,96325.89
2023-01-17T19:59:28.187Z,96316.73
2023-01-17T20:04:30.083Z,96310.83
2023-01-17T20:09:33.495Z,96306.61
2023-01-17T20:14:35.381Z,96309.17
2023-01-17T20:19:37.061Z,96318.81
2023-01-17T20:24:38.928Z,96322.73
2023-01-17T20:29:40.654Z,96314.41
2023-01-17T20:34:44.680Z,96308.66
2023-01-17T20:39:48.239Z,96302.73
2023-01-17T20:44:50.888Z,96292.05
2023-01-17T20:49:52.916Z,96295.95
2023-01-17T20:54:55.514Z,96302.73
2023-01-17T20:59:57.223Z,96314.09
2023-01-17T21:05:01.470Z,96315.44
2023-01-17T21:10:03.778Z,96306.80
2023-01-17T21:15:06.102Z,96294.77
2023-01-17T21:20:08.926Z,96276.62
2023-01-17T21:25:24.492Z,96277.30
2023-01-17T21:30:26.136Z,96289.67
2023-01-17T21:35:30.050Z,96300.85
2023-01-17T21:40:33.034Z,96307.29
2023-01-17T21:45:38.599Z,96299.31
2023-01-17T21:50:40.320Z,96304.56
2023-01-17T21:56:00.745Z,96303.21
2023-01-17T22:01:16.051Z,96305.39
2023-01-17T22:06:19.721Z,96298.77
2023-01-17T22:11:24.357Z,96298.27
2023-01-17T22:16:26.780Z,96289.09
2023-01-17T22:21:29.124Z,96281.98
2023-01-17T22:26:31.460Z,96284.98
2023-01-17T22:31:33.793Z,96271.88
2023-01-17T22:36:35.618Z,96270.35
2023-01-17T22:41:38.442Z,96262.36
2023-01-17T22:46:41.461Z,96242.00
2023-01-17T22:51:43.169Z,96230.93
2023-01-17T22:56:44.752Z,96220.90
2023-01-17T23:01:46.362Z,96216.51
2023-01-17T23:06:48.118Z,96210.93
2023-01-17T23:11:52.733Z,96197.31
2023-01-17T23:17:20.275Z,96196.59
2023-01-17T23:22:27.541Z,96197.08
2023-01-17T23:27:47.796Z,96184.16
2023-01-17T23:32:52.618Z,96179.56
2023-01-17T23:38:14.504Z,96179.00
2023-01-17T23:43:25.333Z,96173.53
2023-01-17T23:48:29.769Z,96167.77
2023-01-17T23:53:31.555Z,96161.67
2023-01-17T23:58:33.957Z,96156.38
